createdAt,value
2023-02-09T00:01:54.992Z,63.90
2023-02-09T00:04:56.718Z,72.60
2023-02-09T00:07:58.742Z,62.40
2023-02-09T00:11:00.630Z,54.20
2023-02-09T00:14:02.294Z,62.70
2023-02-09T00:17:04.885Z,56.80
2023-02-09T00:20:08.483Z,54.60
2023-02-09T00:23:10.088Z,58.40
2023-02-09T00:26:11.984Z,63.70
2023-02-09T00:29:14.617Z,61.60
2023-02-09T00:32:16.272Z,52.60
2023-02-09T00:35:18.202Z,55.90
2023-02-09T00:38:19.757Z,58.10
2023-02-09T00:41:21.400Z,57.70
2023-02-09T00:44:22.942Z,65.10
2023-02-09T00:47:25.064Z,62.10
2023-02-09T00:50:28.011Z,56.70
2023-02-09T00:53:30.065Z,58.60
2023-02-09T00:56:31.734Z,63.10
2023-02-09T00:59:34.699Z,69.10
2023-02-09T01:02:36.962Z,69.90
2023-02-09T01:05:43.023Z,69.70
2023-02-09T01:08:45.103Z,68.20
2023-02-09T01:11:46.910Z,71.70
2023-02-09T01:14:48.647Z,69.30
2023-02-09T01:20:52.043Z,71.40
2023-02-09T01:23:53.616Z,72.30
2023-02-09T01:26:55.599Z,74.60
2023-02-09T01:29:57.514Z,71.20
2023-02-09T01:32:59.227Z,68.80
2023-02-09T01:36:04.782Z,69.70
2023-02-09T01:39:08.474Z,62.20
2023-02-09T01:42:18.530Z,69.40
2023-02-09T01:45:23.418Z,72.90
2023-02-09T01:48:28.601Z,70.20
2023-02-09T01:51:33.587Z,72.00
2023-02-09T01:54:51.680Z,78.30
2023-02-09T01:57:57.149Z,74.70
2023-02-09T02:01:00.191Z,66.00
2023-02-09T02:04:02.155Z,69.90
2023-02-09T02:07:18.518Z,67.50
2023-02-09T02:10:20.226Z,63.10
2023-02-09T02:13:21.891Z,64.20
2023-02-09T02:20:07.716Z,60.30
2023-02-09T02:23:30.753Z,58.30
2023-02-09T02:26:41.166Z,57.30
2023-02-09T02:29:52.048Z,56.30
2023-02-09T02:33:05.616Z,55.50
2023-02-09T02:36:28.565Z,56.80
2023-02-09T02:39:44.054Z,78.10
2023-02-09T02:42:53.738Z,66.30
2023-02-09T02:45:55.333Z,64.00
2023-02-09T02:49:08.184Z,57.90
2023-02-09T02:52:11.124Z,60.00
2023-02-09T02:55:18.776Z,60.20
2023-02-09T02:58:22.323Z,59.50
2023-02-09T03:01:26.502Z,63.80
2023-02-09T03:04:28.648Z,63.50
2023-02-09T03:07:31.690Z,61.10
2023-02-09T03:10:36.463Z,60.50
2023-02-09T03:13:57.092Z,56.80
2023-02-09T03:17:35.536Z,52.50
2023-02-09T03:20:59.421Z,49.80
2023-02-09T03:24:07.356Z,55.00
2023-02-09T03:27:22.163Z,58.30
2023-02-09T03:30:24.617Z,63.20
2023-02-09T03:33:30.638Z,59.90
2023-02-09T03:36:35.304Z,61.80
2023-02-09T03:39:37.122Z,60.50
2023-02-09T03:45:40.540Z,58.60
2023-02-09T03:48:42.035Z,61.60
2023-02-09T03:51:43.826Z,60.10
2023-02-09T03:54:45.868Z,64.60
2023-02-09T03:57:47.549Z,66.70
2023-02-09T04:00:49.264Z,62.50
2023-02-09T04:03:51.000Z,68.90
2023-02-09T04:06:52.590Z,66.90
2023-02-09T04:09:54.290Z,65.20
2023-02-09T04:12:55.909Z,68.60
2023-02-09T04:15:57.467Z,71.20
2023-02-09T04:18:59.199Z,61.60
2023-02-09T04:22:00.785Z,72.00
2023-02-09T04:25:02.377Z,70.90
2023-02-09T04:28:04.120Z,65.30
2023-02-09T04:31:05.953Z,61.20
2023-02-09T04:37:09.449Z,57.50
2023-02-09T04:40:11.299Z,57.70
2023-02-09T04:43:12.852Z,64.20
2023-02-09T04:46:16.857Z,67.20
2023-02-09T04:49:18.458Z,63.70
2023-02-09T04:52:20.124Z,68.40
2023-02-09T04:55:21.660Z,66.80
2023-02-09T04:58:23.313Z,70.70
2023-02-09T05:01:25.672Z,61.90
2023-02-09T05:04:27.617Z,61.90
2023-02-09T05:10:31.050Z,59.20
2023-02-09T05:13:32.789Z,61.90
2023-02-09T05:19:35.932Z,59.80
2023-02-09T05:25:39.180Z,46.50
2023-02-09T05:28:40.709Z,46.80
2023-02-09T05:31:42.276Z,56.50
2023-02-09T05:34:44.149Z,53.60
2023-02-09T05:37:45.638Z,49.70
2023-02-09T05:40:47.734Z,60.90
2023-02-09T05:43:49.671Z,53.70
2023-02-09T05:46:51.208Z,50.30
2023-02-09T05:49:53.059Z,58.20
2023-02-09T05:55:56.045Z,46.00
2023-02-09T05:58:57.720Z,56.60
2023-02-09T06:01:59.855Z,57.10
2023-02-09T06:05:01.611Z,60.30
2023-02-09T06:08:03.503Z,65.50
2023-02-09T06:14:06.680Z,61.70
2023-02-09T06:17:08.485Z,58.50
2023-02-09T06:20:10.820Z,62.00
2023-02-09T06:23:12.418Z,66.00
2023-02-09T06:26:17.124Z,63.40
2023-02-09T06:29:18.854Z,67.40
2023-02-09T06:32:20.465Z,71.20
2023-02-09T06:35:22.369Z,77.50
2023-02-09T06:41:25.625Z,72.50
2023-02-09T06:44:27.147Z,96.60
2023-02-09T06:47:28.774Z,90.80
2023-02-09T06:50:31.005Z,86.20
2023-02-09T06:53:32.838Z,97.60
2023-02-09T06:56:34.379Z,95.80
2023-02-09T06:59:36.152Z,84.80
2023-02-09T07:02:37.814Z,85.50
2023-02-09T07:05:40.174Z,94.40
2023-02-09T07:08:42.482Z,82.90
2023-02-09T07:11:44.002Z,73.10
2023-02-09T07:14:45.679Z,74.60
2023-02-09T07:17:47.520Z,82.80
2023-02-09T07:21:00.534Z,84.30
2023-02-09T07:24:02.084Z,86.50
2023-02-09T07:27:06.992Z,85.60
2023-02-09T07:30:09.683Z,85.20
2023-02-09T07:33:11.221Z,90.70
2023-02-09T07:36:15.441Z,99.20
2023-02-09T07:39:17.629Z,100.80
2023-02-09T07:42:19.492Z,97.60
2023-02-09T07:45:21.053Z,91.70
2023-02-09T07:48:22.732Z,88.20
2023-02-09T07:51:24.734Z,83.10
2023-02-09T07:54:26.569Z,86.60
2023-02-09T08:00:29.953Z,77.30
2023-02-09T08:03:32.195Z,80.70
2023-02-09T08:06:43.420Z,81.30
2023-02-09T08:09:45.233Z,75.40
2023-02-09T08:12:46.991Z,74.10
2023-02-09T08:16:01.227Z,70.80
2023-02-09T08:19:15.623Z,70.10
2023-02-09T08:22:17.558Z,72.20
2023-02-09T08:28:31.806Z,85.60
2023-02-09T08:31:40.648Z,87.20
2023-02-09T08:34:42.365Z,87.90
2023-02-09T08:40:46.370Z,80.60
2023-02-09T08:43:51.672Z,83.60
2023-02-09T08:46:53.582Z,85.80
2023-02-09T08:49:55.384Z,78.30
2023-02-09T08:55:58.584Z,77.20
2023-02-09T08:59:00.211Z,79.10
2023-02-09T09:02:02.081Z,76.60
2023-02-09T09:11:08.500Z,67.00
2023-02-09T09:14:10.182Z,67.40
2023-02-09T09:17:11.747Z,59.70
2023-02-09T09:20:13.729Z,57.10
2023-02-09T09:23:15.540Z,54.90
2023-02-09T09:26:17.545Z,56.50
2023-02-09T09:29:19.090Z,55.20
2023-02-09T09:32:20.828Z,56.70
2023-02-09T09:35:22.718Z,61.50
2023-02-09T09:38:24.252Z,52.40
2023-02-09T09:41:31.193Z,51.20
2023-02-09T09:44:41.750Z,51.60
2023-02-09T09:47:43.943Z,47.60
2023-02-09T09:50:46.415Z,46.00
2023-02-09T09:53:51.108Z,48.20
2023-02-09T09:56:53.974Z,53.00
2023-02-09T09:59:56.700Z,51.10
2023-02-09T10:02:58.392Z,48.80
2023-02-09T10:06:02.026Z,46.00
2023-02-09T10:09:16.939Z,46.30
2023-02-09T10:12:36.885Z,44.50
2023-02-09T10:15:38.564Z,47.70
2023-02-09T10:18:40.152Z,41.80
2023-02-09T10:21:41.923Z,41.50
2023-02-09T10:24:43.587Z,46.50
2023-02-09T10:27:46.452Z,50.70
2023-02-09T10:30:51.234Z,47.80
2023-02-09T10:33:59.106Z,48.10
2023-02-09T10:37:17.414Z,44.20
2023-02-09T10:40:27.794Z,44.90
2023-02-09T10:43:33.850Z,46.60
2023-02-09T10:46:37.721Z,46.00
2023-02-09T10:49:39.436Z,45.40
2023-02-09T10:53:01.813Z,45.80
2023-02-09T10:56:15.100Z,42.60
2023-02-09T10:59:22.454Z,41.90
2023-02-09T11:02:37.819Z,39.00
2023-02-09T11:05:39.474Z,42.30
2023-02-09T11:08:47.363Z,41.00
2023-02-09T11:11:49.110Z,39.40
2023-02-09T11:14:50.763Z,38.50
2023-02-09T11:18:17.320Z,35.00
2023-02-09T11:21:31.702Z,35.40
2023-02-09T11:24:43.401Z,34.70
2023-02-09T11:28:18.911Z,35.30
2023-02-09T11:31:35.956Z,35.10
2023-02-09T11:34:54.069Z,36.70
2023-02-09T11:38:02.937Z,36.90
2023-02-09T11:41:08.399Z,37.60
2023-02-09T11:44:18.643Z,39.50
2023-02-09T11:47:30.573Z,42.10
2023-02-09T11:51:09.993Z,43.00
2023-02-09T11:54:17.763Z,44.70
2023-02-09T11:57:33.685Z,46.50
2023-02-09T12:00:54.749Z,43.10
2023-02-09T12:04:16.292Z,42.20
2023-02-09T12:07:21.795Z,43.90
2023-02-09T12:10:42.273Z,44.80
2023-02-09T12:14:07.337Z,43.80
2023-02-09T12:17:24.325Z,43.00
2023-02-09T12:20:29.554Z,45.10
2023-02-09T12:23:37.904Z,44.60
2023-02-09T12:26:44.388Z,46.10
2023-02-09T12:29:45.997Z,40.70
2023-02-09T12:32:47.664Z,40.90
2023-02-09T12:39:26.353Z,36.20
2023-02-09T12:42:30.746Z,42.60
2023-02-09T12:45:44.257Z,39.40
2023-02-09T12:48:50.948Z,39.50
2023-02-09T12:52:04.338Z,34.80
2023-02-09T12:55:18.268Z,34.80
2023-02-09T12:58:44.691Z,34.20
2023-02-09T13:02:08.074Z,33.60
2023-02-09T13:05:12.999Z,31.40
2023-02-09T13:08:21.562Z,32.70
2023-02-09T13:11:49.820Z,32.30
2023-02-09T13:14:51.593Z,31.70
2023-02-09T13:18:17.825Z,34.10
2023-02-09T13:21:35.083Z,29.80
2023-02-09T13:24:45.172Z,33.20
2023-02-09T13:27:48.963Z,30.60
2023-02-09T13:30:50.624Z,30.70
2023-02-09T13:37:10.026Z,27.70
2023-02-09T13:40:17.759Z,29.10
2023-02-09T13:43:30.541Z,27.80
2023-02-09T13:46:33.103Z,28.50
2023-02-09T13:49:34.799Z,27.60
2023-02-09T13:55:41.035Z,26.80
2023-02-09T14:01:45.053Z,25.90
2023-02-09T14:04:49.967Z,26.30
2023-02-09T14:07:52.414Z,24.70
2023-02-09T14:11:13.421Z,24.00
2023-02-09T14:14:45.099Z,21.60
2023-02-09T14:17:50.813Z,22.00
2023-02-09T14:21:22.108Z,25.70
2023-02-09T14:24:28.342Z,31.60
2023-02-09T14:27:31.814Z,36.40
2023-02-09T14:30:35.530Z,33.80
2023-02-09T14:33:37.669Z,36.10
2023-02-09T14:36:39.340Z,32.90
2023-02-09T14:43:17.018Z,30.90
2023-02-09T14:46:18.563Z,69.20
2023-02-09T14:49:21.309Z,30.70
2023-02-09T14:52:24.651Z,29.50
2023-02-09T14:55:28.627Z,32.20
2023-02-09T14:58:32.018Z,26.70
2023-02-09T15:01:33.625Z,27.30
2023-02-09T15:07:39.836Z,24.00
2023-02-09T15:10:47.614Z,19.30
2023-02-09T15:13:53.520Z,18.10
2023-02-09T15:16:55.060Z,14.70
2023-02-09T15:19:57.971Z,14.90
2023-02-09T15:22:59.816Z,15.00
2023-02-09T15:29:10.668Z,17.80
2023-02-09T15:32:15.299Z,18.70
2023-02-09T15:35:20.172Z,17.60
2023-02-09T15:38:21.832Z,19.00
2023-02-09T15:44:25.073Z,18.20
2023-02-09T15:50:29.786Z,17.30
2023-02-09T15:53:31.616Z,18.10
2023-02-09T15:59:35.508Z,18.70
2023-02-09T16:02:37.156Z,19.30
2023-02-09T16:05:39.244Z,21.00
2023-02-09T16:08:41.140Z,20.90
2023-02-09T16:11:42.954Z,21.30
2023-02-09T16:14:44.703Z,19.80
2023-02-09T16:20:50.659Z,19.20
2023-02-09T16:23:54.799Z,17.30
2023-02-09T16:26:59.349Z,22.80
2023-02-09T16:30:00.983Z,22.50
2023-02-09T16:33:02.719Z,26.60
2023-02-09T16:36:10.904Z,22.80
2023-02-09T16:39:17.117Z,23.40
2023-02-09T16:42:18.737Z,23.70
2023-02-09T16:45:20.956Z,19.70
2023-02-09T16:48:25.489Z,19.00
2023-02-09T16:51:27.213Z,17.80
2023-02-09T16:57:31.666Z,17.10
2023-02-09T17:00:35.771Z,18.00
2023-02-09T17:03:40.562Z,14.50
2023-02-09T17:06:42.190Z,15.60
2023-02-09T17:09:43.736Z,15.90
2023-02-09T17:12:45.490Z,17.90
2023-02-09T17:15:49.886Z,21.30
2023-02-09T17:18:54.025Z,20.40
2023-02-09T17:21:55.582Z,18.10
2023-02-09T17:24:57.348Z,18.10
2023-02-09T17:27:59.027Z,19.20
2023-02-09T17:31:02.405Z,23.60
2023-02-09T17:34:07.054Z,30.70
2023-02-09T17:37:12.924Z,46.20
2023-02-09T17:40:19.719Z,47.20
2023-02-09T17:43:21.824Z,48.40
2023-02-09T17:46:23.508Z,52.00
2023-02-09T17:49:25.326Z,55.70
2023-02-09T17:55:29.535Z,46.70
2023-02-09T17:58:31.077Z,40.40
2023-02-09T18:01:32.691Z,40.50
2023-02-09T18:04:34.629Z,36.40
2023-02-09T18:10:37.926Z,35.70
2023-02-09T18:16:41.401Z,33.20
2023-02-09T18:19:43.044Z,32.50
2023-02-09T18:22:44.746Z,33.60
2023-02-09T18:25:46.747Z,35.20
2023-02-09T18:28:48.464Z,39.10
2023-02-09T18:31:50.710Z,37.60
2023-02-09T18:34:52.296Z,40.20
2023-02-09T18:37:54.015Z,36.70
2023-02-09T18:40:55.572Z,35.00
2023-02-09T18:43:57.245Z,34.80
2023-02-09T18:46:59.935Z,32.70
2023-02-09T18:50:01.463Z,33.80
2023-02-09T18:53:03.625Z,35.70
2023-02-09T18:56:05.686Z,39.80
2023-02-09T18:59:07.207Z,38.60
2023-02-09T19:02:11.145Z,38.90
2023-02-09T19:05:15.151Z,39.40
2023-02-09T19:08:16.795Z,39.70
2023-02-09T19:11:20.564Z,49.20
2023-02-09T19:14:22.361Z,46.60
2023-02-09T19:17:24.368Z,48.20
2023-02-09T19:20:30.734Z,42.50
2023-02-09T19:23:32.365Z,45.30
2023-02-09T19:26:34.035Z,83.70
2023-02-09T19:29:37.453Z,48.80
2023-02-09T19:32:39.226Z,57.30
2023-02-09T19:35:40.839Z,54.20
2023-02-09T19:38:42.520Z,51.00
2023-02-09T19:41:44.212Z,48.70
2023-02-09T19:44:45.800Z,40.40
2023-02-09T19:47:47.461Z,39.00
2023-02-09T19:50:56.888Z,41.10
2023-02-09T19:53:58.519Z,45.40
2023-02-09T19:57:00.321Z,45.50
2023-02-09T20:03:06.952Z,40.20
2023-02-09T20:06:10.047Z,37.80
2023-02-09T20:09:11.641Z,37.80
2023-02-09T20:12:13.412Z,38.50
2023-02-09T20:15:15.226Z,36.80
2023-02-09T20:21:22.099Z,34.80
2023-02-09T20:24:23.703Z,35.40
2023-02-09T20:27:25.800Z,36.10
2023-02-09T20:33:29.096Z,40.00
2023-02-09T20:36:32.649Z,39.40
2023-02-09T20:39:34.316Z,39.70
2023-02-09T20:42:35.990Z,48.20
2023-02-09T20:45:37.616Z,45.30
2023-02-09T20:48:39.183Z,43.20
2023-02-09T20:51:40.788Z,39.80
2023-02-09T20:54:42.302Z,38.20
2023-02-09T20:57:44.028Z,35.90
2023-02-09T21:00:45.948Z,35.90
2023-02-09T21:03:47.525Z,39.30
2023-02-09T21:06:49.064Z,41.90
2023-02-09T21:09:51.034Z,40.80
2023-02-09T21:15:54.202Z,31.90
2023-02-09T21:18:55.774Z,39.40
2023-02-09T21:21:57.511Z,37.30
2023-02-09T21:24:59.210Z,41.50
2023-02-09T21:28:00.899Z,47.90
2023-02-09T21:31:02.836Z,48.30
2023-02-09T21:37:06.498Z,51.50
2023-02-09T21:40:09.210Z,55.50
2023-02-09T21:43:11.829Z,45.20
2023-02-09T21:46:16.781Z,45.60
2023-02-09T21:49:18.353Z,52.20
2023-02-09T21:52:20.372Z,48.60
2023-02-09T21:55:21.953Z,49.90
2023-02-09T21:58:23.529Z,50.70
2023-02-09T22:01:25.114Z,67.90
2023-02-09T22:04:26.703Z,58.10
2023-02-09T22:07:28.510Z,56.10
2023-02-09T22:10:30.083Z,56.50
2023-02-09T22:13:32.614Z,55.80
2023-02-09T22:16:34.309Z,53.50
2023-02-09T22:19:37.115Z,57.10
2023-02-09T22:22:38.678Z,52.70
2023-02-09T22:25:40.260Z,52.50
2023-02-09T22:28:42.631Z,52.70
2023-02-09T22:31:44.514Z,53.40
2023-02-09T22:37:47.580Z,50.10
2023-02-09T22:40:49.113Z,52.40
2023-02-09T22:43:55.713Z,59.20
2023-02-09T22:46:57.317Z,62.80
2023-02-09T22:49:59.206Z,71.10
2023-02-09T22:56:03.346Z,47.80
2023-02-09T22:59:05.258Z,48.50
2023-02-09T23:02:07.009Z,48.30
2023-02-09T23:05:08.691Z,42.10
2023-02-09T23:08:10.241Z,41.90
2023-02-09T23:11:14.369Z,46.60
2023-02-09T23:14:16.706Z,44.40
2023-02-09T23:17:19.489Z,45.60
2023-02-09T23:20:21.162Z,43.00
2023-02-09T23:23:22.699Z,48.30
2023-02-09T23:26:24.756Z,44.90
2023-02-09T23:29:26.512Z,45.00
2023-02-09T23:32:28.044Z,46.60
2023-02-09T23:35:29.817Z,49.50
2023-02-09T23:38:31.683Z,48.80
2023-02-09T23:44:35.099Z,46.20
2023-02-09T23:47:36.718Z,54.70
2023-02-09T23:50:38.373Z,48.50
2023-02-09T23:53:40.168Z,48.20
2023-02-09T23:56:41.697Z,48.20
2023-02-09T23:59:43.234Z,48.00
